sensor_id;sensor_type;location;lat;lon;timestamp;temperature;humidity
16321;DHT22;8269;50.990;4.494;2022-12-16T00:00:12;-4.40;99.90
16321;DHT22;8269;50.990;4.494;2022-12-16T00:02:40;-4.30;99.90
16321;DHT22;8269;50.990;4.494;2022-12-16T00:05:06;-4.20;99.90
16321;DHT22;8269;50.990;4.494;2022-12-16T00:07:32;-4.10;99.90
16321;DHT22;8269;50.990;4.494;2022-12-16T00:09:57;-4.10;99.90
16321;DHT22;8269;50.990;4.494;2022-12-16T00:12:23;-4.00;99.90
16321;DHT22;8269;50.990;4.494;2022-12-16T00:14:48;-3.90;99.90
16321;DHT22;8269;50.990;4.494;2022-12-16T00:17:14;-3.80;99.90
16321;DHT22;8269;50.990;4.494;2022-12-16T00:19:40;-3.70;99.90
16321;DHT22;8269;50.990;4.494;2022-12-16T00:22:05;-3.60;99.90
16321;DHT22;8269;50.990;4.494;2022-12-16T00:24:31;-3.60;99.90
16321;DHT22;8269;50.990;4.494;2022-12-16T00:26:57;-3.50;99.90
16321;DHT22;8269;50.990;4.494;2022-12-16T00:29:22;-3.50;99.90
16321;DHT22;8269;50.990;4.494;2022-12-16T00:31:48;-3.40;99.90
16321;DHT22;8269;50.990;4.494;2022-12-16T00:34:15;-3.40;99.90
16321;DHT22;8269;50.990;4.494;2022-12-16T00:36:41;-3.30;99.90
16321;DHT22;8269;50.990;4.494;2022-12-16T00:39:08;-3.40;99.90
16321;DHT22;8269;50.990;4.494;2022-12-16T00:41:34;-3.30;99.90
16321;DHT22;8269;50.990;4.494;2022-12-16T00:44:00;-3.30;99.90
16321;DHT22;8269;50.990;4.494;2022-12-16T00:46:25;-3.20;99.90
16321;DHT22;8269;50.990;4.494;2022-12-16T00:48:51;-3.10;99.90
16321;DHT22;8269;50.990;4.494;2022-12-16T00:51:17;-3.10;99.90
16321;DHT22;8269;50.990;4.494;2022-12-16T00:53:42;-3.00;99.90
16321;DHT22;8269;50.990;4.494;2022-12-16T00:56:09;-3.10;99.90
16321;DHT22;8269;50.990;4.494;2022-12-16T00:58:36;-3.10;99.90
16321;DHT22;8269;50.990;4.494;2022-12-16T01:01:02;-3.20;99.90
16321;DHT22;8269;50.990;4.494;2022-12-16T01:03:27;-3.10;99.90
16321;DHT22;8269;50.990;4.494;2022-12-16T01:05:53;-3.10;99.90
16321;DHT22;8269;50.990;4.494;2022-12-16T01:08:19;-3.10;99.90
16321;DHT22;8269;50.990;4.494;2022-12-16T01:10:52;-3.10;99.90
16321;DHT22;8269;50.990;4.494;2022-12-16T01:13:19;-3.00;99.90
16321;DHT22;8269;50.990;4.494;2022-12-16T01:15:44;-2.90;99.90
16321;DHT22;8269;50.990;4.494;2022-12-16T01:18:10;-2.90;99.90
16321;DHT22;8269;50.990;4.494;2022-12-16T01:20:36;-2.80;99.90
16321;DHT22;8269;50.990;4.494;2022-12-16T01:23:03;-2.80;99.90
16321;DHT22;8269;50.990;4.494;2022-12-16T01:25:28;-2.70;99.90
16321;DHT22;8269;50.990;4.494;2022-12-16T01:27:54;-2.70;99.90
16321;DHT22;8269;50.990;4.494;2022-12-16T01:30:19;-2.60;99.90
16321;DHT22;8269;50.990;4.494;2022-12-16T01:32:45;-2.60;99.90
16321;DHT22;8269;50.990;4.494;2022-12-16T01:35:12;-2.60;99.90
16321;DHT22;8269;50.990;4.494;2022-12-16T01:37:38;-2.60;99.90
16321;DHT22;8269;50.990;4.494;2022-12-16T01:40:04;-2.60;99.90
16321;DHT22;8269;50.990;4.494;2022-12-16T01:42:30;-2.50;99.90
16321;DHT22;8269;50.990;4.494;2022-12-16T01:47:50;-2.50;99.90
16321;DHT22;8269;50.990;4.494;2022-12-16T01:50:17;-2.50;99.90
16321;DHT22;8269;50.990;4.494;2022-12-16T01:52:49;-2.40;99.90
16321;DHT22;8269;50.990;4.494;2022-12-16T01:55:23;-2.40;99.90
16321;DHT22;8269;50.990;4.494;2022-12-16T01:57:55;-2.30;99.90
16321;DHT22;8269;50.990;4.494;2022-12-16T02:00:22;-2.20;99.90
16321;DHT22;8269;50.990;4.494;2022-12-16T02:02:48;-2.20;99.90
16321;DHT22;8269;50.990;4.494;2022-12-16T02:05:14;-2.20;99.90
16321;DHT22;8269;50.990;4.494;2022-12-16T02:08:06;-2.30;99.90
16321;DHT22;8269;50.990;4.494;2022-12-16T02:10:46;-2.30;99.90
16321;DHT22;8269;50.990;4.494;2022-12-16T02:13:22;-2.20;99.90
16321;DHT22;8269;50.990;4.494;2022-12-16T02:16:04;-2.20;99.90
16321;DHT22;8269;50.990;4.494;2022-12-16T02:18:41;-2.10;99.90
16321;DHT22;8269;50.990;4.494;2022-12-16T02:32:10;-1.90;99.90
16321;DHT22;8269;50.990;4.494;2022-12-16T02:34:52;-1.90;99.90
16321;DHT22;8269;50.990;4.494;2022-12-16T02:37:51;-1.90;99.90
16321;DHT22;8269;50.990;4.494;2022-12-16T02:40:27;-1.80;99.90
16321;DHT22;8269;50.990;4.494;2022-12-16T02:43:03;-1.80;99.90
16321;DHT22;8269;50.990;4.494;2022-12-16T02:45:31;-1.80;99.90
16321;DHT22;8269;50.990;4.494;2022-12-16T02:47:58;-1.80;99.90
16321;DHT22;8269;50.990;4.494;2022-12-16T02:50:27;-1.80;99.90
16321;DHT22;8269;50.990;4.494;2022-12-16T02:52:55;-1.80;99.90
16321;DHT22;8269;50.990;4.494;2022-12-16T02:55:31;-1.80;99.90
16321;DHT22;8269;50.990;4.494;2022-12-16T02:58:06;-1.70;99.90
16321;DHT22;8269;50.990;4.494;2022-12-16T03:00:50;-1.70;99.90
16321;DHT22;8269;50.990;4.494;2022-12-16T03:03:31;-1.70;99.90
16321;DHT22;8269;50.990;4.494;2022-12-16T03:06:01;-1.70;99.90
16321;DHT22;8269;50.990;4.494;2022-12-16T03:08:36;-1.60;99.90
16321;DHT22;8269;50.990;4.494;2022-12-16T03:11:04;-1.60;99.90
16321;DHT22;8269;50.990;4.494;2022-12-16T03:13:36;-1.50;99.90
16321;DHT22;8269;50.990;4.494;2022-12-16T03:16:04;-1.50;99.90
16321;DHT22;8269;50.990;4.494;2022-12-16T03:18:32;-1.50;99.90
16321;DHT22;8269;50.990;4.494;2022-12-16T03:21:02;-1.50;99.90
16321;DHT22;8269;50.990;4.494;2022-12-16T03:23:39;-1.50;99.90
16321;DHT22;8269;50.990;4.494;2022-12-16T03:26:11;-1.40;99.90
16321;DHT22;8269;50.990;4.494;2022-12-16T03:33:48;-1.30;99.90
16321;DHT22;8269;50.990;4.494;2022-12-16T03:36:22;-1.30;99.90
16321;DHT22;8269;50.990;4.494;2022-12-16T03:38:49;-1.20;99.90
16321;DHT22;8269;50.990;4.494;2022-12-16T03:41:17;-1.20;99.90
16321;DHT22;8269;50.990;4.494;2022-12-16T03:43:45;-1.20;99.90
16321;DHT22;8269;50.990;4.494;2022-12-16T03:46:13;-1.10;99.90
16321;DHT22;8269;50.990;4.494;2022-12-16T03:48:50;-1.10;99.90
16321;DHT22;8269;50.990;4.494;2022-12-16T03:51:17;-1.10;99.90
16321;DHT22;8269;50.990;4.494;2022-12-16T03:53:43;-1.10;99.90
16321;DHT22;8269;50.990;4.494;2022-12-16T03:56:08;-1.20;99.90
16321;DHT22;8269;50.990;4.494;2022-12-16T03:58:34;-1.20;99.90
16321;DHT22;8269;50.990;4.494;2022-12-16T04:01:00;-1.10;99.90
16321;DHT22;8269;50.990;4.494;2022-12-16T04:03:26;-1.10;99.90
16321;DHT22;8269;50.990;4.494;2022-12-16T04:05:51;-1.00;99.90
16321;DHT22;8269;50.990;4.494;2022-12-16T04:08:17;-1.00;99.90
16321;DHT22;8269;50.990;4.494;2022-12-16T04:10:43;-1.00;99.90
16321;DHT22;8269;50.990;4.494;2022-12-16T04:13:27;-1.00;99.90
16321;DHT22;8269;50.990;4.494;2022-12-16T04:16:15;-1.00;99.90
16321;DHT22;8269;50.990;4.494;2022-12-16T04:19:01;-1.00;99.90
16321;DHT22;8269;50.990;4.494;2022-12-16T04:21:45;-1.00;99.90
16321;DHT22;8269;50.990;4.494;2022-12-16T04:24:30;-0.90;99.90
16321;DHT22;8269;50.990;4.494;2022-12-16T04:26:56;-0.80;99.90
16321;DHT22;8269;50.990;4.494;2022-12-16T04:29:40;-0.70;99.90
16321;DHT22;8269;50.990;4.494;2022-12-16T04:32:25;-0.60;99.90
16321;DHT22;8269;50.990;4.494;2022-12-16T04:34:51;-0.60;99.90
16321;DHT22;8269;50.990;4.494;2022-12-16T04:37:17;-0.50;99.90
16321;DHT22;8269;50.990;4.494;2022-12-16T04:40:03;-0.50;99.90
16321;DHT22;8269;50.990;4.494;2022-12-16T04:42:47;-0.40;99.90
16321;DHT22;8269;50.990;4.494;2022-12-16T04:45:31;-0.40;99.90
16321;DHT22;8269;50.990;4.494;2022-12-16T04:48:15;-0.30;99.90
16321;DHT22;8269;50.990;4.494;2022-12-16T04:50:59;-0.40;99.90
16321;DHT22;8269;50.990;4.494;2022-12-16T04:53:44;-0.30;99.90
16321;DHT22;8269;50.990;4.494;2022-12-16T04:56:28;-0.30;99.90
16321;DHT22;8269;50.990;4.494;2022-12-16T04:59:12;-0.30;99.90
16321;DHT22;8269;50.990;4.494;2022-12-16T05:01:56;-0.20;99.90
16321;DHT22;8269;50.990;4.494;2022-12-16T05:04:40;-0.20;99.90
16321;DHT22;8269;50.990;4.494;2022-12-16T05:07:24;-0.20;99.90
16321;DHT22;8269;50.990;4.494;2022-12-16T05:10:08;-0.20;99.90
16321;DHT22;8269;50.990;4.494;2022-12-16T05:12:53;-0.10;99.90
16321;DHT22;8269;50.990;4.494;2022-12-16T05:15:38;-0.10;99.90
16321;DHT22;8269;50.990;4.494;2022-12-16T05:18:22;-0.10;99.90
16321;DHT22;8269;50.990;4.494;2022-12-16T05:21:06;-0.10;99.90
16321;DHT22;8269;50.990;4.494;2022-12-16T05:23:51;-0.10;99.90
16321;DHT22;8269;50.990;4.494;2022-12-16T05:26:35;-0.20;99.90
16321;DHT22;8269;50.990;4.494;2022-12-16T05:29:19;-0.20;99.90
16321;DHT22;8269;50.990;4.494;2022-12-16T05:32:03;-0.30;99.90
16321;DHT22;8269;50.990;4.494;2022-12-16T05:34:47;-0.40;99.90
16321;DHT22;8269;50.990;4.494;2022-12-16T05:37:31;-0.50;99.90
16321;DHT22;8269;50.990;4.494;2022-12-16T05:40:15;-0.70;99.90
16321;DHT22;8269;50.990;4.494;2022-12-16T05:43:00;-0.80;99.90
16321;DHT22;8269;50.990;4.494;2022-12-16T05:45:44;-0.90;99.90
16321;DHT22;8269;50.990;4.494;2022-12-16T05:48:28;-1.10;99.90
16321;DHT22;8269;50.990;4.494;2022-12-16T05:51:12;-1.20;99.90
16321;DHT22;8269;50.990;4.494;2022-12-16T05:53:56;-1.40;99.90
16321;DHT22;8269;50.990;4.494;2022-12-16T05:56:40;-1.50;99.90
16321;DHT22;8269;50.990;4.494;2022-12-16T05:59:24;-1.50;99.90
16321;DHT22;8269;50.990;4.494;2022-12-16T06:02:08;-1.60;99.90
16321;DHT22;8269;50.990;4.494;2022-12-16T06:04:53;-1.70;99.90
16321;DHT22;8269;50.990;4.494;2022-12-16T06:07:37;-1.70;99.90
16321;DHT22;8269;50.990;4.494;2022-12-16T06:10:21;-1.80;99.90
16321;DHT22;8269;50.990;4.494;2022-12-16T06:13:05;-1.80;99.90
16321;DHT22;8269;50.990;4.494;2022-12-16T06:15:49;-1.80;99.90
16321;DHT22;8269;50.990;4.494;2022-12-16T06:18:34;-1.90;99.90
16321;DHT22;8269;50.990;4.494;2022-12-16T06:21:19;-1.90;99.90
16321;DHT22;8269;50.990;4.494;2022-12-16T06:24:03;-2.00;99.90
16321;DHT22;8269;50.990;4.494;2022-12-16T06:26:47;-2.00;99.90
16321;DHT22;8269;50.990;4.494;2022-12-16T06:29:31;-2.00;99.90
16321;DHT22;8269;50.990;4.494;2022-12-16T06:32:15;-2.10;99.90
16321;DHT22;8269;50.990;4.494;2022-12-16T06:35:01;-2.20;99.90
16321;DHT22;8269;50.990;4.494;2022-12-16T06:37:48;-2.20;99.90
16321;DHT22;8269;50.990;4.494;2022-12-16T06:40:33;-2.30;99.90
16321;DHT22;8269;50.990;4.494;2022-12-16T06:43:17;-2.40;99.90
16321;DHT22;8269;50.990;4.494;2022-12-16T06:46:01;-2.40;99.90
16321;DHT22;8269;50.990;4.494;2022-12-16T06:48:45;-2.50;99.90
16321;DHT22;8269;50.990;4.494;2022-12-16T06:51:29;-2.50;99.90
16321;DHT22;8269;50.990;4.494;2022-12-16T06:54:13;-2.50;99.90
16321;DHT22;8269;50.990;4.494;2022-12-16T06:56:58;-2.50;99.90
16321;DHT22;8269;50.990;4.494;2022-12-16T06:59:58;-2.50;99.90
16321;DHT22;8269;50.990;4.494;2022-12-16T07:02:43;-2.40;99.90
16321;DHT22;8269;50.990;4.494;2022-12-16T07:05:27;-2.30;99.90
16321;DHT22;8269;50.990;4.494;2022-12-16T07:08:11;-2.10;99.90
16321;DHT22;8269;50.990;4.494;2022-12-16T07:10:55;-2.10;99.90
16321;DHT22;8269;50.990;4.494;2022-12-16T07:13:41;-2.00;99.90
16321;DHT22;8269;50.990;4.494;2022-12-16T07:16:25;-1.90;99.90
16321;DHT22;8269;50.990;4.494;2022-12-16T07:19:09;-1.90;99.90
16321;DHT22;8269;50.990;4.494;2022-12-16T07:21:53;-1.80;99.90
16321;DHT22;8269;50.990;4.494;2022-12-16T07:24:37;-1.70;99.90
16321;DHT22;8269;50.990;4.494;2022-12-16T07:27:21;-1.70;99.90
16321;DHT22;8269;50.990;4.494;2022-12-16T07:30:06;-1.40;99.90
16321;DHT22;8269;50.990;4.494;2022-12-16T07:32:50;-1.20;99.90
16321;DHT22;8269;50.990;4.494;2022-12-16T07:35:34;-1.10;99.90
16321;DHT22;8269;50.990;4.494;2022-12-16T07:38:18;-1.00;99.90
16321;DHT22;8269;50.990;4.494;2022-12-16T07:41:02;-1.00;99.90
16321;DHT22;8269;50.990;4.494;2022-12-16T07:43:46;-1.00;99.90
16321;DHT22;8269;50.990;4.494;2022-12-16T07:46:30;-1.00;99.90
16321;DHT22;8269;50.990;4.494;2022-12-16T07:49:14;-1.00;99.90
16321;DHT22;8269;50.990;4.494;2022-12-16T07:51:59;-0.90;99.90
16321;DHT22;8269;50.990;4.494;2022-12-16T07:54:43;-0.80;99.90
16321;DHT22;8269;50.990;4.494;2022-12-16T07:57:27;-0.70;99.90
16321;DHT22;8269;50.990;4.494;2022-12-16T08:00:11;-0.70;99.90
16321;DHT22;8269;50.990;4.494;2022-12-16T08:02:56;-0.60;99.90
16321;DHT22;8269;50.990;4.494;2022-12-16T08:05:40;-0.60;99.90
16321;DHT22;8269;50.990;4.494;2022-12-16T08:08:24;-0.50;99.90
16321;DHT22;8269;50.990;4.494;2022-12-16T08:11:08;-0.50;99.90
16321;DHT22;8269;50.990;4.494;2022-12-16T08:13:52;-0.60;99.90
16321;DHT22;8269;50.990;4.494;2022-12-16T08:16:36;-0.60;99.90
16321;DHT22;8269;50.990;4.494;2022-12-16T08:19:20;-0.60;99.90
16321;DHT22;8269;50.990;4.494;2022-12-16T08:22:04;-0.50;99.90
16321;DHT22;8269;50.990;4.494;2022-12-16T08:24:48;-0.50;99.90
16321;DHT22;8269;50.990;4.494;2022-12-16T08:27:33;-0.50;99.90
16321;DHT22;8269;50.990;4.494;2022-12-16T08:30:17;-0.30;99.90
16321;DHT22;8269;50.990;4.494;2022-12-16T08:35:46;0.20;99.90
16321;DHT22;8269;50.990;4.494;2022-12-16T08:38:31;-0.30;99.90
16321;DHT22;8269;50.990;4.494;2022-12-16T08:41:17;-0.30;99.90
16321;DHT22;8269;50.990;4.494;2022-12-16T08:44:01;-0.30;99.90
16321;DHT22;8269;50.990;4.494;2022-12-16T08:46:45;-0.20;99.90
16321;DHT22;8269;50.990;4.494;2022-12-16T08:49:29;-0.10;99.90
16321;DHT22;8269;50.990;4.494;2022-12-16T08:52:14;-0.10;99.90
16321;DHT22;8269;50.990;4.494;2022-12-16T08:54:58;-0.10;99.90
16321;DHT22;8269;50.990;4.494;2022-12-16T08:57:54;0.00;99.90
16321;DHT22;8269;50.990;4.494;2022-12-16T09:00:39;-0.10;99.90
16321;DHT22;8269;50.990;4.494;2022-12-16T09:03:23;-0.20;99.90
16321;DHT22;8269;50.990;4.494;2022-12-16T09:06:07;-0.20;99.90
16321;DHT22;8269;50.990;4.494;2022-12-16T09:08:51;0.00;99.90
16321;DHT22;8269;50.990;4.494;2022-12-16T09:11:36;-0.20;99.90
16321;DHT22;8269;50.990;4.494;2022-12-16T09:14:20;-0.10;99.90
16321;DHT22;8269;50.990;4.494;2022-12-16T09:17:04;-0.10;99.90
16321;DHT22;8269;50.990;4.494;2022-12-16T09:19:48;-0.10;99.90
16321;DHT22;8269;50.990;4.494;2022-12-16T09:22:35;-0.20;99.90
16321;DHT22;8269;50.990;4.494;2022-12-16T09:25:19;-0.20;99.90
16321;DHT22;8269;50.990;4.494;2022-12-16T09:28:04;-0.10;99.90
16321;DHT22;8269;50.990;4.494;2022-12-16T09:30:48;0.10;99.90
16321;DHT22;8269;50.990;4.494;2022-12-16T09:33:32;-0.10;99.90
16321;DHT22;8269;50.990;4.494;2022-12-16T09:36:16;-0.10;99.90
16321;DHT22;8269;50.990;4.494;2022-12-16T09:39:00;-0.10;99.90
16321;DHT22;8269;50.990;4.494;2022-12-16T09:42:08;-0.10;99.90
16321;DHT22;8269;50.990;4.494;2022-12-16T09:51:21;0.00;99.90
16321;DHT22;8269;50.990;4.494;2022-12-16T09:54:11;0.00;99.90
16321;DHT22;8269;50.990;4.494;2022-12-16T09:56:59;0.00;99.90
16321;DHT22;8269;50.990;4.494;2022-12-16T09:59:54;0.10;99.90
16321;DHT22;8269;50.990;4.494;2022-12-16T10:02:41;0.10;99.90
16321;DHT22;8269;50.990;4.494;2022-12-16T10:05:38;0.10;99.90
16321;DHT22;8269;50.990;4.494;2022-12-16T10:08:50;0.20;99.90
16321;DHT22;8269;50.990;4.494;2022-12-16T10:14:32;0.20;99.90
16321;DHT22;8269;50.990;4.494;2022-12-16T10:17:28;0.20;99.90
16321;DHT22;8269;50.990;4.494;2022-12-16T10:26:03;0.50;99.90
16321;DHT22;8269;50.990;4.494;2022-12-16T10:28:59;0.30;99.90
16321;DHT22;8269;50.990;4.494;2022-12-16T10:31:45;0.40;99.90
16321;DHT22;8269;50.990;4.494;2022-12-16T11:00:13;0.70;99.90
16321;DHT22;8269;50.990;4.494;2022-12-16T11:46:19;1.00;99.90
16321;DHT22;8269;50.990;4.494;2022-12-16T11:49:09;1.10;99.90
16321;DHT22;8269;50.990;4.494;2022-12-16T11:52:00;1.20;99.90
16321;DHT22;8269;50.990;4.494;2022-12-16T11:55:06;1.30;99.90
16321;DHT22;8269;50.990;4.494;2022-12-16T12:01:36;1.20;99.90
16321;DHT22;8269;50.990;4.494;2022-12-16T12:04:23;1.00;99.90
16321;DHT22;8269;50.990;4.494;2022-12-16T12:07:28;0.90;99.90
16321;DHT22;8269;50.990;4.494;2022-12-16T12:10:36;0.80;99.90
16321;DHT22;8269;50.990;4.494;2022-12-16T12:20:01;0.60;99.90
16321;DHT22;8269;50.990;4.494;2022-12-16T12:22:49;0.60;99.90
16321;DHT22;8269;50.990;4.494;2022-12-16T12:29:19;0.60;99.90
16321;DHT22;8269;50.990;4.494;2022-12-16T12:35:28;0.60;99.90
16321;DHT22;8269;50.990;4.494;2022-12-16T12:42:20;0.70;99.90
16321;DHT22;8269;50.990;4.494;2022-12-16T12:45:15;0.70;99.90
16321;DHT22;8269;50.990;4.494;2022-12-16T12:57:37;0.80;99.90
16321;DHT22;8269;50.990;4.494;2022-12-16T13:00:23;1.00;99.90
16321;DHT22;8269;50.990;4.494;2022-12-16T13:06:14;1.00;99.90
16321;DHT22;8269;50.990;4.494;2022-12-16T13:08:59;0.90;99.90
16321;DHT22;8269;50.990;4.494;2022-12-16T13:20:46;1.10;99.90
16321;DHT22;8269;50.990;4.494;2022-12-16T13:23:33;1.00;99.90
16321;DHT22;8269;50.990;4.494;2022-12-16T13:26:22;1.20;99.90
16321;DHT22;8269;50.990;4.494;2022-12-16T13:29:20;1.10;99.90
16321;DHT22;8269;50.990;4.494;2022-12-16T13:37:54;1.20;99.90
16321;DHT22;8269;50.990;4.494;2022-12-16T13:43:48;1.30;99.90
16321;DHT22;8269;50.990;4.494;2022-12-16T13:46:44;1.20;99.90
16321;DHT22;8269;50.990;4.494;2022-12-16T13:49:52;1.10;99.90
16321;DHT22;8269;50.990;4.494;2022-12-16T13:52:47;1.10;99.90
16321;DHT22;8269;50.990;4.494;2022-12-16T13:58:39;1.30;99.90
16321;DHT22;8269;50.990;4.494;2022-12-16T14:01:35;1.30;99.90
16321;DHT22;8269;50.990;4.494;2022-12-16T14:04:52;1.20;99.90
16321;DHT22;8269;50.990;4.494;2022-12-16T14:07:38;1.20;99.90
16321;DHT22;8269;50.990;4.494;2022-12-16T14:10:33;1.30;99.90
16321;DHT22;8269;50.990;4.494;2022-12-16T14:13:32;1.10;99.90
16321;DHT22;8269;50.990;4.494;2022-12-16T14:22:53;1.10;99.90
16321;DHT22;8269;50.990;4.494;2022-12-16T14:25:42;1.10;99.90
16321;DHT22;8269;50.990;4.494;2022-12-16T14:28:31;1.10;99.90
16321;DHT22;8269;50.990;4.494;2022-12-16T14:31:34;1.00;99.90
16321;DHT22;8269;50.990;4.494;2022-12-16T14:34:48;1.00;99.90
16321;DHT22;8269;50.990;4.494;2022-12-16T14:37:44;1.10;99.90
16321;DHT22;8269;50.990;4.494;2022-12-16T14:40:29;1.00;99.90
16321;DHT22;8269;50.990;4.494;2022-12-16T14:43:32;0.80;99.90
16321;DHT22;8269;50.990;4.494;2022-12-16T14:46:30;0.80;99.90
16321;DHT22;8269;50.990;4.494;2022-12-16T14:49:24;0.70;99.90
16321;DHT22;8269;50.990;4.494;2022-12-16T14:52:25;0.70;99.90
16321;DHT22;8269;50.990;4.494;2022-12-16T14:55:16;0.70;99.90
16321;DHT22;8269;50.990;4.494;2022-12-16T15:00:51;0.60;99.90
16321;DHT22;8269;50.990;4.494;2022-12-16T15:03:38;0.50;99.90
16321;DHT22;8269;50.990;4.494;2022-12-16T15:06:28;0.40;99.90
16321;DHT22;8269;50.990;4.494;2022-12-16T15:09:29;0.70;99.90
16321;DHT22;8269;50.990;4.494;2022-12-16T15:12:21;0.30;99.90
16321;DHT22;8269;50.990;4.494;2022-12-16T15:15:12;0.30;99.90
16321;DHT22;8269;50.990;4.494;2022-12-16T15:17:57;0.30;99.90
16321;DHT22;8269;50.990;4.494;2022-12-16T15:20:52;0.10;99.90
16321;DHT22;8269;50.990;4.494;2022-12-16T15:23:42;0.10;99.90
16321;DHT22;8269;50.990;4.494;2022-12-16T15:26:29;-0.10;99.90
16321;DHT22;8269;50.990;4.494;2022-12-16T15:32:28;-0.20;99.90
16321;DHT22;8269;50.990;4.494;2022-12-16T15:38:21;-0.40;99.90
16321;DHT22;8269;50.990;4.494;2022-12-16T15:41:24;-0.40;99.90
16321;DHT22;8269;50.990;4.494;2022-12-16T15:44:20;-0.40;99.90
16321;DHT22;8269;50.990;4.494;2022-12-16T15:47:31;-0.40;99.90
16321;DHT22;8269;50.990;4.494;2022-12-16T15:50:20;-0.50;99.90
16321;DHT22;8269;50.990;4.494;2022-12-16T15:53:32;-0.60;99.90
16321;DHT22;8269;50.990;4.494;2022-12-16T15:56:31;-0.60;99.90
16321;DHT22;8269;50.990;4.494;2022-12-16T15:59:32;-0.70;99.90
16321;DHT22;8269;50.990;4.494;2022-12-16T16:02:32;-0.80;99.90
16321;DHT22;8269;50.990;4.494;2022-12-16T16:05:23;-0.90;99.90
16321;DHT22;8269;50.990;4.494;2022-12-16T16:08:09;-0.50;99.90
16321;DHT22;8269;50.990;4.494;2022-12-16T16:10:54;-1.00;99.90
16321;DHT22;8269;50.990;4.494;2022-12-16T16:13:37;-1.10;99.90
16321;DHT22;8269;50.990;4.494;2022-12-16T16:16:22;-1.10;99.90
16321;DHT22;8269;50.990;4.494;2022-12-16T16:19:18;-1.30;99.90
16321;DHT22;8269;50.990;4.494;2022-12-16T16:22:09;-1.20;99.90
16321;DHT22;8269;50.990;4.494;2022-12-16T16:24:53;-1.40;99.90
16321;DHT22;8269;50.990;4.494;2022-12-16T16:27:38;-1.30;99.90
16321;DHT22;8269;50.990;4.494;2022-12-16T16:30:22;-1.60;99.90
16321;DHT22;8269;50.990;4.494;2022-12-16T16:33:06;-1.60;99.90
16321;DHT22;8269;50.990;4.494;2022-12-16T16:35:50;-1.50;99.90
16321;DHT22;8269;50.990;4.494;2022-12-16T16:38:35;-1.40;99.90
16321;DHT22;8269;50.990;4.494;2022-12-16T16:41:19;-1.40;99.90
16321;DHT22;8269;50.990;4.494;2022-12-16T16:44:03;-1.60;99.90
16321;DHT22;8269;50.990;4.494;2022-12-16T16:46:47;-1.60;99.90
16321;DHT22;8269;50.990;4.494;2022-12-16T16:49:39;-1.60;99.90
16321;DHT22;8269;50.990;4.494;2022-12-16T16:52:25;-1.60;99.90
16321;DHT22;8269;50.990;4.494;2022-12-16T16:55:29;-1.70;99.90
16321;DHT22;8269;50.990;4.494;2022-12-16T16:58:46;-1.70;99.90
16321;DHT22;8269;50.990;4.494;2022-12-16T17:01:30;-1.60;99.90
16321;DHT22;8269;50.990;4.494;2022-12-16T17:04:15;-1.80;99.90
16321;DHT22;8269;50.990;4.494;2022-12-16T17:06:59;-1.70;99.90
16321;DHT22;8269;50.990;4.494;2022-12-16T17:09:43;-1.80;99.90
16321;DHT22;8269;50.990;4.494;2022-12-16T17:12:29;-1.80;99.90
16321;DHT22;8269;50.990;4.494;2022-12-16T17:15:18;-1.80;99.90
16321;DHT22;8269;50.990;4.494;2022-12-16T17:18:04;-1.80;99.90
16321;DHT22;8269;50.990;4.494;2022-12-16T17:20:48;-1.80;99.90
16321;DHT22;8269;50.990;4.494;2022-12-16T17:23:32;-1.90;99.90
16321;DHT22;8269;50.990;4.494;2022-12-16T17:26:17;-1.90;99.90
16321;DHT22;8269;50.990;4.494;2022-12-16T17:29:03;-1.90;99.90
16321;DHT22;8269;50.990;4.494;2022-12-16T17:31:48;-2.00;99.90
16321;DHT22;8269;50.990;4.494;2022-12-16T17:34:32;-2.10;99.90
16321;DHT22;8269;50.990;4.494;2022-12-16T17:37:16;-2.10;99.90
16321;DHT22;8269;50.990;4.494;2022-12-16T17:40:00;-2.10;99.90
16321;DHT22;8269;50.990;4.494;2022-12-16T17:42:45;-2.10;99.90
16321;DHT22;8269;50.990;4.494;2022-12-16T17:45:29;-2.20;99.90
16321;DHT22;8269;50.990;4.494;2022-12-16T17:48:13;-2.20;99.90
16321;DHT22;8269;50.990;4.494;2022-12-16T17:51:00;-2.30;99.90
16321;DHT22;8269;50.990;4.494;2022-12-16T17:53:44;-2.30;99.90
16321;DHT22;8269;50.990;4.494;2022-12-16T17:56:28;-2.40;99.90
16321;DHT22;8269;50.990;4.494;2022-12-16T17:59:12;-2.40;99.90
16321;DHT22;8269;50.990;4.494;2022-12-16T18:01:56;-2.50;99.90
16321;DHT22;8269;50.990;4.494;2022-12-16T18:04:40;-2.50;99.90
16321;DHT22;8269;50.990;4.494;2022-12-16T18:07:24;-2.40;99.90
16321;DHT22;8269;50.990;4.494;2022-12-16T18:10:09;-2.50;99.90
16321;DHT22;8269;50.990;4.494;2022-12-16T18:12:54;-2.50;99.90
16321;DHT22;8269;50.990;4.494;2022-12-16T18:15:39;-2.50;99.90
16321;DHT22;8269;50.990;4.494;2022-12-16T18:18:24;-2.50;99.90
16321;DHT22;8269;50.990;4.494;2022-12-16T18:21:13;-2.60;99.90
16321;DHT22;8269;50.990;4.494;2022-12-16T18:23:57;-2.60;99.90
16321;DHT22;8269;50.990;4.494;2022-12-16T18:26:41;-2.60;99.90
16321;DHT22;8269;50.990;4.494;2022-12-16T18:29:26;-2.60;99.90
16321;DHT22;8269;50.990;4.494;2022-12-16T18:32:10;-2.60;99.90
16321;DHT22;8269;50.990;4.494;2022-12-16T18:34:54;-2.60;99.90
16321;DHT22;8269;50.990;4.494;2022-12-16T18:37:38;-2.60;99.90
16321;DHT22;8269;50.990;4.494;2022-12-16T18:40:22;-2.70;99.90
16321;DHT22;8269;50.990;4.494;2022-12-16T18:43:06;-2.70;99.90
16321;DHT22;8269;50.990;4.494;2022-12-16T18:45:51;-2.70;99.90
16321;DHT22;8269;50.990;4.494;2022-12-16T18:48:35;-2.70;99.90
16321;DHT22;8269;50.990;4.494;2022-12-16T18:51:20;-2.80;99.90
16321;DHT22;8269;50.990;4.494;2022-12-16T18:54:04;-2.60;99.90
16321;DHT22;8269;50.990;4.494;2022-12-16T18:56:48;-2.80;99.90
16321;DHT22;8269;50.990;4.494;2022-12-16T18:59:32;-2.90;99.90
16321;DHT22;8269;50.990;4.494;2022-12-16T19:02:16;-2.80;99.90
16321;DHT22;8269;50.990;4.494;2022-12-16T19:05:00;-2.90;99.90
16321;DHT22;8269;50.990;4.494;2022-12-16T19:07:44;-2.90;99.90
16321;DHT22;8269;50.990;4.494;2022-12-16T19:10:28;-2.90;99.90
16321;DHT22;8269;50.990;4.494;2022-12-16T19:13:13;-2.90;99.90
16321;DHT22;8269;50.990;4.494;2022-12-16T19:16:01;-3.00;99.90
16321;DHT22;8269;50.990;4.494;2022-12-16T19:18:59;-3.00;99.90
16321;DHT22;8269;50.990;4.494;2022-12-16T19:21:43;-3.10;99.90
16321;DHT22;8269;50.990;4.494;2022-12-16T19:24:28;-3.10;99.90
16321;DHT22;8269;50.990;4.494;2022-12-16T19:27:12;-3.10;99.90
16321;DHT22;8269;50.990;4.494;2022-12-16T19:29:56;-3.20;99.90
16321;DHT22;8269;50.990;4.494;2022-12-16T19:32:40;-3.20;99.90
16321;DHT22;8269;50.990;4.494;2022-12-16T19:35:28;-3.20;99.90
16321;DHT22;8269;50.990;4.494;2022-12-16T19:38:13;-3.20;99.90
16321;DHT22;8269;50.990;4.494;2022-12-16T19:40:57;-3.20;99.90
16321;DHT22;8269;50.990;4.494;2022-12-16T19:43:41;-3.30;99.90
16321;DHT22;8269;50.990;4.494;2022-12-16T19:46:26;-3.40;99.90
16321;DHT22;8269;50.990;4.494;2022-12-16T19:49:09;-3.30;99.90
16321;DHT22;8269;50.990;4.494;2022-12-16T19:51:54;-3.40;99.90
16321;DHT22;8269;50.990;4.494;2022-12-16T19:54:37;-3.40;99.90
16321;DHT22;8269;50.990;4.494;2022-12-16T19:57:22;-3.40;99.90
16321;DHT22;8269;50.990;4.494;2022-12-16T20:00:08;-3.40;99.90
16321;DHT22;8269;50.990;4.494;2022-12-16T20:02:52;-3.30;99.90
16321;DHT22;8269;50.990;4.494;2022-12-16T20:05:36;-3.50;99.90
16321;DHT22;8269;50.990;4.494;2022-12-16T20:08:21;-3.50;99.90
16321;DHT22;8269;50.990;4.494;2022-12-16T20:11:06;-3.50;99.90
16321;DHT22;8269;50.990;4.494;2022-12-16T20:13:52;-3.60;99.90
16321;DHT22;8269;50.990;4.494;2022-12-16T20:16:37;-3.80;99.90
16321;DHT22;8269;50.990;4.494;2022-12-16T20:19:21;-3.60;99.90
16321;DHT22;8269;50.990;4.494;2022-12-16T20:22:06;-3.70;99.90
16321;DHT22;8269;50.990;4.494;2022-12-16T20:24:50;-3.90;99.90